createdAt,value
2023-05-24T00:01:57.026Z,88.16
2023-05-24T00:04:25.590Z,88.00
2023-05-24T00:06:55.113Z,87.97
2023-05-24T00:09:21.966Z,87.97
2023-05-24T00:11:48.714Z,88.02
2023-05-24T00:14:15.634Z,88.41
2023-05-24T00:16:42.350Z,88.26
2023-05-24T00:19:11.386Z,88.25
2023-05-24T00:21:38.545Z,88.92
2023-05-24T00:24:05.301Z,88.60
2023-05-24T00:26:31.851Z,88.55
2023-05-24T00:28:58.415Z,88.83
2023-05-24T00:31:25.041Z,88.72
2023-05-24T00:33:51.662Z,88.70
2023-05-24T00:36:18.315Z,88.73
2023-05-24T00:38:44.920Z,88.90
2023-05-24T00:41:11.650Z,89.21
2023-05-24T00:43:38.253Z,88.96
2023-05-24T00:46:16.979Z,89.00
2023-05-24T00:48:44.808Z,89.38
2023-05-24T00:51:13.141Z,88.89
2023-05-24T00:53:41.360Z,89.29
2023-05-24T00:56:08.702Z,89.15
2023-05-24T00:58:35.567Z,89.17
2023-05-24T01:01:03.603Z,89.53
2023-05-24T01:03:30.442Z,89.33
2023-05-24T01:05:58.560Z,89.31
2023-05-24T01:08:40.504Z,89.60
2023-05-24T01:11:17.876Z,89.42
2023-05-24T01:13:55.053Z,90.02
2023-05-24T01:16:26.130Z,90.42
2023-05-24T01:19:13.021Z,90.58
2023-05-24T01:21:59.114Z,90.43
2023-05-24T01:24:42.468Z,90.96
2023-05-24T01:27:15.301Z,90.40
2023-05-24T01:29:42.668Z,91.26
2023-05-24T01:32:10.026Z,90.82
2023-05-24T01:34:36.608Z,91.06
2023-05-24T01:37:03.093Z,90.70
2023-05-24T01:39:30.657Z,91.05
2023-05-24T01:42:06.203Z,90.59
2023-05-24T01:45:00.465Z,91.21
2023-05-24T01:47:42.406Z,91.39
2023-05-24T01:50:23.839Z,91.26
2023-05-24T01:52:53.492Z,91.93
2023-05-24T01:55:20.961Z,91.98
2023-05-24T01:57:50.657Z,92.69
2023-05-24T02:00:19.289Z,94.09
2023-05-24T02:02:46.710Z,93.64
2023-05-24T02:05:13.534Z,94.20
2023-05-24T02:07:41.487Z,94.02
2023-05-24T02:10:08.474Z,94.18
2023-05-24T02:12:35.103Z,94.06
2023-05-24T02:15:01.696Z,93.23
2023-05-24T02:17:28.303Z,93.45
2023-05-24T02:19:54.940Z,93.91
2023-05-24T02:22:22.446Z,94.56
2023-05-24T02:24:49.131Z,94.90
2023-05-24T02:27:15.684Z,94.78
2023-05-24T02:29:42.273Z,94.83
2023-05-24T02:32:09.252Z,94.78
2023-05-24T02:34:35.957Z,95.29
2023-05-24T02:37:02.707Z,95.27
2023-05-24T02:39:29.227Z,95.38
2023-05-24T02:41:55.796Z,95.22
2023-05-24T02:44:22.371Z,94.72
2023-05-24T02:55:18.625Z,94.82
2023-05-24T03:24:16.098Z,94.39
2023-05-24T03:26:45.148Z,93.88
2023-05-24T03:29:11.926Z,94.89
2023-05-24T03:31:43.524Z,94.27
2023-05-24T03:34:11.662Z,94.56
2023-05-24T03:36:39.701Z,94.35
2023-05-24T03:39:08.677Z,94.42
2023-05-24T03:41:40.298Z,94.37
2023-05-24T03:44:11.750Z,94.78
2023-05-24T03:54:24.856Z,94.94
2023-05-24T03:57:19.370Z,94.94
2023-05-24T04:11:53.497Z,95.22
2023-05-24T05:17:32.685Z,93.61
2023-05-24T05:20:08.507Z,93.88
2023-05-24T05:22:46.185Z,93.26
2023-05-24T05:25:21.065Z,92.52
2023-05-24T05:28:23.641Z,92.53
2023-05-24T05:31:27.005Z,92.73
2023-05-24T05:34:14.020Z,94.08
2023-05-24T05:37:24.900Z,92.43
2023-05-24T06:44:51.093Z,83.57
2023-05-24T07:18:30.789Z,79.43
2023-05-24T07:20:57.808Z,78.81
2023-05-24T07:23:26.764Z,78.92
2023-05-24T07:25:53.547Z,78.72
2023-05-24T07:28:22.237Z,77.88
2023-05-24T07:30:52.162Z,78.96
2023-05-24T07:33:23.965Z,78.23
2023-05-24T07:35:55.328Z,78.10
2023-05-24T07:38:24.143Z,78.29
2023-05-24T07:42:31.367Z,79.25
2023-05-24T07:44:50.693Z,78.88
2023-05-24T07:55:30.774Z,76.32
2023-05-24T07:58:37.818Z,77.18
2023-05-24T09:03:03.828Z,68.53
2023-05-24T09:05:41.535Z,67.06
2023-05-24T09:10:54.972Z,66.47
2023-05-24T09:11:40.226Z,66.14
2023-05-24T09:14:35.831Z,68.77
2023-05-24T09:17:13.039Z,65.44
2023-05-24T09:20:01.503Z,64.89
2023-05-24T09:26:14.163Z,66.25
2023-05-24T09:31:55.005Z,65.23
2023-05-24T09:34:38.531Z,64.45
2023-05-24T09:37:27.458Z,63.23
2023-05-24T09:40:28.800Z,64.95
2023-05-24T09:43:13.176Z,65.87
2023-05-24T09:49:41.493Z,66.40
2023-05-24T09:52:18.782Z,65.59
2023-05-24T09:54:48.267Z,64.61
2023-05-24T09:57:18.316Z,65.43
2023-05-24T09:59:47.107Z,65.17
2023-05-24T10:02:38.106Z,66.32
2023-05-24T10:08:14.142Z,66.18
2023-05-24T10:10:58.647Z,65.14
2023-05-24T10:13:50.799Z,65.30
2023-05-24T10:17:32.027Z,66.39
2023-05-24T10:19:52.665Z,66.43
2023-05-24T10:25:18.738Z,65.09
2023-05-24T10:26:19.145Z,65.15
2023-05-24T10:28:57.759Z,64.32
2023-05-24T10:31:58.883Z,65.46
2023-05-24T10:34:40.595Z,64.76
2023-05-24T10:37:17.511Z,63.28
2023-05-24T10:39:57.177Z,61.51
2023-05-24T10:42:39.940Z,62.04
2023-05-24T10:45:47.864Z,62.52
2023-05-24T10:48:54.631Z,61.95
2023-05-24T10:52:59.680Z,63.14
2023-05-24T10:55:28.736Z,61.79
2023-05-24T10:58:45.465Z,61.90
2023-05-24T11:02:03.619Z,61.77
2023-05-24T11:05:14.285Z,61.41
2023-05-24T11:11:42.380Z,59.51
2023-05-24T11:14:33.154Z,59.95
2023-05-24T11:17:17.354Z,59.90
2023-05-24T11:20:27.018Z,59.70
2023-05-24T11:23:20.481Z,58.83
2023-05-24T11:25:49.429Z,58.96
2023-05-24T11:28:31.875Z,61.46
2023-05-24T11:31:31.011Z,60.24
2023-05-24T11:34:31.124Z,61.55
2023-05-24T11:37:38.444Z,61.04
2023-05-24T11:40:27.428Z,59.27
2023-05-24T11:42:58.708Z,59.58
2023-05-24T11:45:47.189Z,60.45
2023-05-24T11:48:34.490Z,60.45
2023-05-24T11:52:06.536Z,60.54
2023-05-24T11:59:09.024Z,61.45
2023-05-24T12:08:41.755Z,60.23
2023-05-24T12:11:34.022Z,60.68
2023-05-24T12:17:13.888Z,60.34
2023-05-24T12:20:11.706Z,60.37
2023-05-24T12:22:56.420Z,59.89
2023-05-24T12:25:29.896Z,59.22
2023-05-24T12:25:58.095Z,59.71
2023-05-24T12:32:06.284Z,61.30
2023-05-24T12:34:53.206Z,60.30
2023-05-24T12:37:34.382Z,59.90
2023-05-24T12:40:08.091Z,58.75
2023-05-24T12:40:54.360Z,60.39
2023-05-24T12:42:36.612Z,58.94
2023-05-24T12:48:46.841Z,60.54
2023-05-24T12:52:15.438Z,60.66
2023-05-24T12:55:25.423Z,60.37
2023-05-24T12:58:35.359Z,61.49
2023-05-24T13:01:02.500Z,61.51
2023-05-24T13:11:30.648Z,60.56
2023-05-24T13:14:24.473Z,57.98
2023-05-24T13:17:21.324Z,58.28
2023-05-24T13:20:33.950Z,60.33
2023-05-24T13:23:25.654Z,60.06
2023-05-24T13:26:40.082Z,62.12
2023-05-24T13:30:19.915Z,60.34
2023-05-24T13:33:03.617Z,59.67
2023-05-24T13:35:50.249Z,60.97
2023-05-24T13:39:21.612Z,61.38
2023-05-24T13:44:46.546Z,62.68
2023-05-24T13:47:38.498Z,59.99
2023-05-24T13:50:28.175Z,61.29
2023-05-24T13:53:26.382Z,64.13
2023-05-24T13:56:28.464Z,63.16
2023-05-24T14:02:03.222Z,60.67
2023-05-24T14:04:46.161Z,60.79
2023-05-24T14:07:53.591Z,60.68
2023-05-24T14:28:51.368Z,61.55
2023-05-24T14:32:08.854Z,60.55
2023-05-24T14:35:13.552Z,59.82
2023-05-24T14:38:00.794Z,59.57
2023-05-24T14:38:03.173Z,59.35
2023-05-24T14:40:54.617Z,59.47
2023-05-24T14:43:38.111Z,59.99
2023-05-24T14:46:39.476Z,61.01
2023-05-24T14:49:26.983Z,60.56
2023-05-24T14:52:16.174Z,61.80
2023-05-24T14:58:01.990Z,62.98
2023-05-24T14:58:33.647Z,62.52
2023-05-24T15:03:23.995Z,62.60
2023-05-24T15:06:09.583Z,61.84
2023-05-24T15:08:42.412Z,61.20
2023-05-24T15:11:16.324Z,62.13
2023-05-24T15:17:23.955Z,62.04
2023-05-24T15:20:43.740Z,60.36
2023-05-24T15:23:38.255Z,61.84
2023-05-24T15:26:04.930Z,59.96
2023-05-24T15:28:59.306Z,61.07
2023-05-24T15:30:14.768Z,62.51
2023-05-24T15:35:10.371Z,60.77
2023-05-24T15:37:54.240Z,58.57
2023-05-24T15:40:27.877Z,58.11
2023-05-24T15:48:37.160Z,58.30
2023-05-24T15:48:55.263Z,57.16
2023-05-24T15:52:03.476Z,58.58
2023-05-24T15:54:53.108Z,60.03
2023-05-24T15:57:35.341Z,61.11
2023-05-24T16:00:02.307Z,60.29
2023-05-24T16:02:38.188Z,59.40
2023-05-24T16:05:13.079Z,58.11
2023-05-24T16:07:44.684Z,57.32
2023-05-24T16:10:30.657Z,57.85
2023-05-24T16:13:27.052Z,56.81
2023-05-24T16:16:00.306Z,57.90
2023-05-24T16:18:31.698Z,59.21
2023-05-24T16:21:25.174Z,60.92
2023-05-24T16:24:22.105Z,60.15
2023-05-24T16:26:59.579Z,61.99
2023-05-24T16:32:19.304Z,61.94
2023-05-24T16:35:00.079Z,62.31
2023-05-24T16:35:06.624Z,61.94
2023-05-24T16:37:40.176Z,62.64
2023-05-24T16:40:10.832Z,62.82
2023-05-24T16:42:44.429Z,63.43
2023-05-24T16:45:30.482Z,63.68
2023-05-24T16:48:29.814Z,63.93
2023-05-24T16:51:01.724Z,65.15
2023-05-24T16:53:34.433Z,65.39
2023-05-24T16:56:15.556Z,64.40
2023-05-24T16:58:42.242Z,65.73
2023-05-24T17:01:16.575Z,65.31
2023-05-24T17:03:45.921Z,65.05
2023-05-24T17:06:13.094Z,64.32
2023-05-24T17:08:51.352Z,63.44
2023-05-24T17:11:19.950Z,64.42
2023-05-24T17:13:51.259Z,63.95
2023-05-24T17:16:19.476Z,64.17
2023-05-24T17:18:53.024Z,63.94
2023-05-24T17:21:22.171Z,64.61
2023-05-24T17:24:31.199Z,64.82
2023-05-24T17:27:01.108Z,64.86
2023-05-24T17:29:32.563Z,65.77
2023-05-24T17:32:08.422Z,64.38
2023-05-24T17:34:45.797Z,66.04
2023-05-24T17:37:33.847Z,66.28
2023-05-24T17:40:10.103Z,67.41
2023-05-24T17:42:41.862Z,67.39
2023-05-24T17:45:16.517Z,67.91
2023-05-24T17:47:55.023Z,69.18
2023-05-24T17:50:24.798Z,68.92
2023-05-24T17:55:51.116Z,68.10
2023-05-24T17:59:03.095Z,68.38
2023-05-24T18:01:38.249Z,68.18
2023-05-24T18:04:15.170Z,69.00
2023-05-24T18:07:17.939Z,69.31
2023-05-24T18:09:46.973Z,69.27
2023-05-24T18:12:15.424Z,69.11
2023-05-24T18:14:44.465Z,69.71
2023-05-24T18:17:23.996Z,70.05
2023-05-24T18:20:02.754Z,70.67
2023-05-24T18:22:29.561Z,69.78
2023-05-24T18:25:00.261Z,69.27
2023-05-24T18:27:43.026Z,69.77
2023-05-24T18:30:17.605Z,70.15
2023-05-24T18:33:03.387Z,71.16
2023-05-24T18:35:54.228Z,70.63
2023-05-24T18:38:29.881Z,70.83
2023-05-24T18:41:11.067Z,71.23
2023-05-24T18:44:14.433Z,71.10
2023-05-24T18:46:37.918Z,71.40
2023-05-24T18:49:06.892Z,71.81
2023-05-24T18:51:36.217Z,71.68
2023-05-24T18:54:21.215Z,72.33
2023-05-24T18:56:54.398Z,71.46
2023-05-24T18:59:24.716Z,72.77
2023-05-24T19:01:53.992Z,73.60
2023-05-24T19:04:20.806Z,72.25
2023-05-24T19:06:47.516Z,72.96
2023-05-24T19:09:14.248Z,73.05
2023-05-24T19:11:40.866Z,73.81
2023-05-24T19:14:07.620Z,72.95
2023-05-24T19:17:04.213Z,73.47
2023-05-24T19:19:32.871Z,73.58
2023-05-24T19:22:01.019Z,73.59
2023-05-24T19:24:34.780Z,74.44
2023-05-24T19:27:01.827Z,73.99
2023-05-24T19:29:41.680Z,74.22
2023-05-24T19:32:11.075Z,74.50
2023-05-24T19:34:43.356Z,75.31
2023-05-24T19:37:12.486Z,74.71
2023-05-24T19:39:40.602Z,75.22
2023-05-24T19:42:11.714Z,75.21
2023-05-24T19:44:43.205Z,75.04
2023-05-24T19:47:17.166Z,75.43
2023-05-24T19:49:44.181Z,75.39
2023-05-24T19:52:12.394Z,75.56
2023-05-24T19:54:45.000Z,76.12
2023-05-24T19:58:05.748Z,76.41
2023-05-24T20:00:49.554Z,76.74
2023-05-24T20:03:02.485Z,76.79
2023-05-24T20:05:40.272Z,76.83
2023-05-24T20:08:08.893Z,77.65
2023-05-24T20:10:36.647Z,77.31
2023-05-24T20:13:05.737Z,78.33
2023-05-24T20:15:32.555Z,78.25
2023-05-24T20:18:05.188Z,78.39
2023-05-24T20:20:39.825Z,79.01
2023-05-24T20:23:13.139Z,79.38
2023-05-24T20:25:44.772Z,79.30
2023-05-24T20:28:25.598Z,79.12
2023-05-24T20:31:10.137Z,79.32
2023-05-24T20:33:41.405Z,79.71
2023-05-24T20:36:24.610Z,79.53
2023-05-24T20:38:54.280Z,79.99
2023-05-24T20:41:25.761Z,80.01
2023-05-24T20:44:06.576Z,80.28
2023-05-24T20:46:43.084Z,80.21
2023-05-24T20:49:17.534Z,80.84
2023-05-24T20:51:49.291Z,80.92
2023-05-24T20:54:18.196Z,80.88
2023-05-24T20:56:49.318Z,81.28
2023-05-24T20:59:16.544Z,81.05
2023-05-24T21:01:46.290Z,81.05
2023-05-24T21:04:16.484Z,81.26
2023-05-24T21:06:43.217Z,81.70
2023-05-24T21:09:12.441Z,81.48
2023-05-24T21:11:47.519Z,81.65
2023-05-24T21:14:28.814Z,81.89
2023-05-24T21:17:03.417Z,82.10
2023-05-24T21:19:37.076Z,82.34
2023-05-24T21:22:06.570Z,82.63
2023-05-24T21:24:34.981Z,83.12
2023-05-24T21:27:06.314Z,83.48
2023-05-24T21:29:32.938Z,83.23
2023-05-24T21:31:59.736Z,83.68
2023-05-24T21:34:39.872Z,83.72
2023-05-24T21:37:12.287Z,83.99
2023-05-24T21:39:45.563Z,83.74
2023-05-24T21:42:17.145Z,83.73
2023-05-24T21:44:49.763Z,84.33
2023-05-24T21:47:28.209Z,84.02
2023-05-24T21:49:57.767Z,84.75
2023-05-24T21:52:29.508Z,84.81
2023-05-24T21:54:56.407Z,84.79
2023-05-24T21:57:31.757Z,84.96
2023-05-24T21:59:58.621Z,84.99
2023-05-24T22:02:34.557Z,84.98
2023-05-24T22:05:06.935Z,84.84
2023-05-24T22:07:55.394Z,84.86
2023-05-24T22:10:29.681Z,85.08
2023-05-24T22:13:07.921Z,85.40
2023-05-24T22:15:39.025Z,85.51
2023-05-24T22:18:15.316Z,85.73
2023-05-24T22:21:03.637Z,85.70
2023-05-24T22:23:36.774Z,85.97
2023-05-24T22:26:12.436Z,85.96
2023-05-24T22:28:58.147Z,85.85
2023-05-24T22:31:26.768Z,86.19
2023-05-24T22:34:30.452Z,86.55
2023-05-24T22:37:28.296Z,86.47
2023-05-24T22:39:55.647Z,85.94
2023-05-24T22:42:24.632Z,86.78
2023-05-24T22:45:14.388Z,87.31
2023-05-24T22:47:41.180Z,87.54
2023-05-24T22:50:18.398Z,88.54
2023-05-24T22:52:49.225Z,90.00
2023-05-24T22:55:19.190Z,89.85
2023-05-24T22:58:04.069Z,89.55
2023-05-24T23:00:33.698Z,89.51
2023-05-24T23:03:06.397Z,89.01
2023-05-24T23:05:37.619Z,88.64
2023-05-24T23:08:09.343Z,88.78
2023-05-24T23:10:45.919Z,89.43
2023-05-24T23:13:31.815Z,89.32
2023-05-24T23:16:09.343Z,90.77
2023-05-24T23:18:38.309Z,90.70
2023-05-24T23:21:07.354Z,90.70
2023-05-24T23:23:45.660Z,90.98
2023-05-24T23:26:14.694Z,91.10
2023-05-24T23:28:44.132Z,91.08
2023-05-24T23:31:11.285Z,91.61
2023-05-24T23:33:40.518Z,91.63
2023-05-24T23:36:19.262Z,92.30
2023-05-24T23:38:46.355Z,91.40
2023-05-24T23:41:17.867Z,91.39
2023-05-24T23:43:44.668Z,91.01
2023-05-24T23:46:18.804Z,90.94
2023-05-24T23:48:56.688Z,90.68
2023-05-24T23:51:30.003Z,90.45
2023-05-24T23:54:02.539Z,89.77
2023-05-24T23:56:35.202Z,90.11
2023-05-24T23:59:17.173Z,91.56
